Time;durP1;ratioP1;P1;durP2;ratioP2;P2;SDS_P1;SDS_P2;PMS_P1;PMS_P2;Temp;Humidity;BMP_temperature;BMP_pressure;BME280_temperature;BME280_humidity;BME280_pressure;Samples;Min_cycle;Max_cycle;Signal;HPM_P1;HPM_P2
2023/06/23 00:00:13;;;;;;;22.90;18.90;;;16.80;99.90;;;;;;5055932;28;20202;-58
2023/06/23 00:02:41;;;;;;;21.67;19.42;;;16.80;99.90;;;;;;5056235;28;20233;-58
2023/06/23 00:05:08;;;;;;;19.83;17.75;;;16.90;99.90;;;;;;5056092;28;20229;-59
2023/06/23 00:07:35;;;;;;;22.70;18.10;;;16.90;99.90;;;;;;5056024;28;20187;-59
2023/06/23 00:10:05;;;;;;;22.80;19.00;;;16.70;99.90;;;;;;5055930;28;20175;-59
2023/06/23 00:12:34;;;;;;;21.35;19.08;;;16.60;99.90;;;;;;5055815;28;20532;-58
2023/06/23 00:15:00;;;;;;;22.02;18.38;;;16.50;99.90;;;;;;5055156;28;20175;-59
2023/06/23 00:17:26;;;;;;;20.10;17.63;;;16.40;99.90;;;;;;5055027;28;20227;-58
2023/06/23 00:19:52;;;;;;;21.02;17.02;;;16.40;99.90;;;;;;5055806;28;20214;-58
2023/06/23 00:22:17;;;;;;;20.30;16.77;;;16.40;99.90;;;;;;5055954;28;20190;-59
2023/06/23 00:24:43;;;;;;;21.10;17.77;;;16.40;99.90;;;;;;5055633;28;20173;-59
2023/06/23 00:27:09;;;;;;;23.75;18.17;;;16.30;99.90;;;;;;5055500;28;20254;-58
2023/06/23 00:29:34;;;;;;;22.58;18.05;;;16.50;99.90;;;;;;5055494;28;20183;-58
2023/06/23 00:32:02;;;;;;;22.55;18.38;;;16.40;99.90;;;;;;5055629;28;20226;-58
2023/06/23 00:34:28;;;;;;;19.65;17.60;;;16.40;99.90;;;;;;5055348;28;20655;-59
2023/06/23 00:36:54;;;;;;;18.95;16.95;;;16.50;99.90;;;;;;5055436;28;20175;-59
2023/06/23 00:39:20;;;;;;;19.35;17.33;;;16.40;99.90;;;;;;5055353;28;20191;-59
2023/06/23 00:41:46;;;;;;;23.48;17.70;;;16.40;99.90;;;;;;5055274;28;20203;-58
2023/06/23 00:44:11;;;;;;;20.15;18.05;;;16.30;99.90;;;;;;5055159;28;20179;-59
2023/06/23 00:46:37;;;;;;;18.95;16.95;;;16.30;99.90;;;;;;5055110;28;20179;-59
2023/06/23 00:49:04;;;;;;;20.35;16.80;;;16.30;99.90;;;;;;5055379;28;20198;-59
2023/06/23 00:51:31;;;;;;;21.70;17.80;;;16.30;99.90;;;;;;5055171;28;20184;-58
2023/06/23 00:53:58;;;;;;;19.52;17.45;;;16.20;99.90;;;;;;5055099;28;20183;-59
2023/06/23 00:56:24;;;;;;;19.33;16.92;;;16.30;99.90;;;;;;5055058;28;20178;-58
2023/06/23 00:58:52;;;;;;;19.77;17.42;;;16.30;99.90;;;;;;5055219;28;20171;-58
2023/06/23 01:01:17;;;;;;;20.38;16.77;;;16.30;99.90;;;;;;5055015;28;20211;-59
2023/06/23 01:03:43;;;;;;;21.55;16.63;;;16.30;99.90;;;;;;5055037;28;20179;-59
2023/06/23 01:06:30;;;;;;;19.17;16.90;;;16.20;99.90;;;;;;5055098;28;20175;-59
2023/06/23 01:09:01;;;;;;;19.77;16.73;;;16.20;99.90;;;;;;5054891;28;20171;-58
2023/06/23 01:11:43;;;;;;;17.90;15.90;;;16.30;99.90;;;;;;5054924;28;20217;-59
2023/06/23 01:14:22;;;;;;;20.20;15.82;;;16.30;99.90;;;;;;5054939;28;20180;-58
2023/06/23 01:17:05;;;;;;;18.00;16.02;;;16.30;99.90;;;;;;5054526;28;20615;-58
2023/06/23 01:19:57;;;;;;;17.88;15.85;;;16.30;99.90;;;;;;5054800;28;20184;-58
2023/06/23 01:22:41;;;;;;;19.17;16.33;;;16.30;99.90;;;;;;5054470;28;20655;-59
2023/06/23 01:25:36;;;;;;;18.08;16.08;;;16.20;99.90;;;;;;5054485;28;20163;-58
2023/06/23 01:28:54;;;;;;;17.58;15.75;;;16.20;99.90;;;;;;5054206;28;20176;-59
2023/06/23 01:31:41;;;;;;;17.45;15.10;;;16.20;99.90;;;;;;5014055;28;20187;-58
2023/06/23 01:34:10;;;;;;;18.17;16.27;;;16.10;99.90;;;;;;5054257;28;20593;-58
2023/06/23 01:36:46;;;;;;;18.02;15.52;;;16.10;99.90;;;;;;5054430;28;20175;-58
2023/06/23 01:39:15;;;;;;;16.75;15.10;;;16.10;99.90;;;;;;5054400;28;20182;-59
2023/06/23 01:41:45;;;;;;;17.60;15.05;;;16.00;99.90;;;;;;5054176;28;20603;-59
2023/06/23 01:44:14;;;;;;;18.30;14.65;;;16.00;99.90;;;;;;5054173;28;20297;-58
2023/06/23 01:46:43;;;;;;;17.95;16.23;;;15.90;99.90;;;;;;5053922;28;20555;-59
2023/06/23 01:49:12;;;;;;;17.73;15.57;;;15.90;99.90;;;;;;5054160;28;20265;-59
2023/06/23 01:51:45;;;;;;;18.45;15.38;;;15.80;99.90;;;;;;5054027;28;20176;-58
2023/06/23 01:54:13;;;;;;;18.98;17.08;;;15.80;99.90;;;;;;5053856;28;20171;-58
2023/06/23 01:56:42;;;;;;;20.48;17.83;;;15.80;99.90;;;;;;5053870;28;20171;-58
2023/06/23 01:59:10;;;;;;;20.70;18.40;;;15.80;99.90;;;;;;5053895;28;20259;-58
2023/06/23 02:01:37;;;;;;;20.13;18.00;;;15.80;99.90;;;;;;5053933;28;20672;-59
2023/06/23 02:04:04;;;;;;;22.23;20.02;;;15.70;99.90;;;;;;5053881;28;20179;-59
2023/06/23 02:06:32;;;;;;;22.02;19.85;;;15.70;99.90;;;;;;5053876;28;20742;-58
2023/06/23 02:08:59;;;;;;;22.60;20.15;;;15.70;99.90;;;;;;5053838;28;20175;-58
2023/06/23 02:11:26;;;;;;;22.75;20.33;;;15.70;99.90;;;;;;5053682;28;20182;-58
2023/06/23 02:13:54;;;;;;;25.65;21.40;;;15.70;99.90;;;;;;5053511;28;20183;-58
2023/06/23 02:16:20;;;;;;;23.85;20.92;;;15.70;99.90;;;;;;5053773;28;20171;-59
2023/06/23 02:18:53;;;;;;;24.42;21.80;;;15.70;99.90;;;;;;5053710;28;20233;-58
2023/06/23 02:21:21;;;;;;;24.65;21.63;;;15.60;99.90;;;;;;5053611;28;20207;-58
2023/06/23 02:23:47;;;;;;;22.98;20.45;;;15.60;99.90;;;;;;5053645;28;20178;-58
2023/06/23 02:26:14;;;;;;;25.85;23.08;;;15.60;99.90;;;;;;5053340;28;20297;-59
2023/06/23 02:28:41;;;;;;;25.15;22.50;;;15.70;99.90;;;;;;5053558;28;20569;-58
2023/06/23 02:31:08;;;;;;;24.30;21.67;;;15.70;99.90;;;;;;5053513;28;20183;-59
2023/06/23 02:33:34;;;;;;;26.02;22.92;;;15.60;99.90;;;;;;5053365;28;20177;-59
2023/06/23 02:36:04;;;;;;;26.23;23.83;;;15.70;99.90;;;;;;5053484;28;20698;-59
2023/06/23 02:38:31;;;;;;;26.33;22.95;;;15.60;99.90;;;;;;5052607;28;20258;-59
2023/06/23 02:40:59;;;;;;;28.15;25.13;;;15.60;99.90;;;;;;5053023;28;20214;-58
2023/06/23 02:43:30;;;;;;;27.45;24.55;;;15.60;99.90;;;;;;5053392;28;20198;-58
2023/06/23 02:46:00;;;;;;;28.88;24.65;;;15.60;99.90;;;;;;5053608;28;20174;-59
2023/06/23 02:48:32;;;;;;;30.00;26.80;;;15.60;99.90;;;;;;5053219;28;20171;-58
2023/06/23 02:51:00;;;;;;;29.65;26.20;;;15.60;99.90;;;;;;5053224;28;20182;-58
2023/06/23 02:53:29;;;;;;;28.80;25.40;;;15.60;99.90;;;;;;5053470;28;20179;-58
2023/06/23 02:56:03;;;;;;;28.23;25.25;;;15.60;99.90;;;;;;5053159;28;20177;-59
2023/06/23 02:58:31;;;;;;;28.08;25.00;;;15.50;99.90;;;;;;5053210;28;20179;-59
2023/06/23 03:01:01;;;;;;;27.83;24.92;;;15.50;99.90;;;;;;5052949;28;20249;-59
2023/06/23 03:03:29;;;;;;;28.90;25.80;;;15.60;99.90;;;;;;5053138;28;20205;-58
2023/06/23 03:05:57;;;;;;;28.95;25.83;;;15.50;99.90;;;;;;5053100;28;20210;-59
2023/06/23 03:08:25;;;;;;;29.27;25.98;;;15.40;99.90;;;;;;5053119;28;20178;-58
2023/06/23 03:10:50;;;;;;;29.27;26.13;;;15.50;99.90;;;;;;5052865;28;20180;-58
2023/06/23 03:13:16;;;;;;;30.17;26.90;;;15.50;99.90;;;;;;5052969;28;20221;-59
2023/06/23 03:15:43;;;;;;;30.95;27.73;;;15.40;99.90;;;;;;5052977;28;20167;-58
2023/06/23 03:18:20;;;;;;;31.48;28.13;;;15.50;99.90;;;;;;5053064;28;20284;-58
2023/06/23 03:20:52;;;;;;;31.02;27.58;;;15.40;99.90;;;;;;5052751;28;20587;-58
2023/06/23 03:23:20;;;;;;;31.02;27.75;;;15.40;99.90;;;;;;5052949;28;20187;-59
2023/06/23 03:25:47;;;;;;;33.97;28.52;;;15.40;99.90;;;;;;5053094;28;20191;-58
2023/06/23 03:28:19;;;;;;;32.72;29.27;;;15.40;99.90;;;;;;5052929;28;20313;-59
2023/06/23 03:30:48;;;;;;;32.90;29.40;;;15.40;99.90;;;;;;5052811;28;20207;-59
2023/06/23 03:33:27;;;;;;;35.67;29.92;;;15.40;99.90;;;;;;5052888;28;20540;-59
2023/06/23 03:35:55;;;;;;;33.13;29.58;;;15.50;99.90;;;;;;5053041;28;20628;-59
2023/06/23 03:38:23;;;;;;;35.30;30.17;;;15.40;99.90;;;;;;5052711;28;20191;-58
2023/06/23 03:40:59;;;;;;;35.92;31.52;;;15.40;99.90;;;;;;5052699;28;20195;-58
2023/06/23 03:43:34;;;;;;;33.45;29.85;;;15.40;99.90;;;;;;5052579;28;20171;-59
2023/06/23 03:46:05;;;;;;;36.17;30.67;;;15.40;99.90;;;;;;5052776;28;20170;-58
2023/06/23 03:48:36;;;;;;;35.10;31.23;;;15.40;99.90;;;;;;5052849;28;20533;-58
2023/06/23 03:51:04;;;;;;;34.55;30.83;;;15.40;99.90;;;;;;5054977;28;20206;-58
2023/06/23 03:53:32;;;;;;;35.50;31.40;;;15.40;99.90;;;;;;5056255;28;20201;-59
2023/06/23 03:56:00;;;;;;;34.92;30.20;;;15.40;99.90;;;;;;5056078;28;20183;-58
2023/06/23 03:58:27;;;;;;;33.78;30.10;;;15.50;99.90;;;;;;5056364;28;20167;-59
2023/06/23 04:00:55;;;;;;;34.22;30.58;;;15.50;99.90;;;;;;5056372;28;20229;-59
2023/06/23 04:03:23;;;;;;;38.63;31.42;;;15.50;99.90;;;;;;5056227;28;20179;-59
2023/06/23 04:05:49;;;;;;;35.05;31.33;;;15.60;99.90;;;;;;5055961;28;20585;-58
2023/06/23 04:08:18;;;;;;;34.90;31.00;;;15.60;99.90;;;;;;5055975;28;20218;-59
2023/06/23 04:10:46;;;;;;;32.67;29.27;;;15.50;99.90;;;;;;5055762;28;20174;-58
2023/06/23 04:13:14;;;;;;;35.45;31.58;;;15.60;99.90;;;;;;5056001;28;20256;-58
2023/06/23 04:15:40;;;;;;;35.72;31.73;;;15.60;99.90;;;;;;5055903;28;20171;-59
2023/06/23 04:18:08;;;;;;;34.75;31.15;;;15.60;99.90;;;;;;5055509;28;20223;-58
2023/06/23 04:20:37;;;;;;;33.50;30.08;;;15.60;99.90;;;;;;5055580;28;20240;-59
2023/06/23 04:23:05;;;;;;;33.38;29.77;;;15.60;99.90;;;;;;5055388;28;20625;-58
2023/06/23 04:25:31;;;;;;;32.03;27.85;;;15.70;99.90;;;;;;5054221;28;20258;-59
2023/06/23 04:28:00;;;;;;;31.77;27.42;;;15.70;99.90;;;;;;5055831;28;20206;-58
2023/06/23 04:30:29;;;;;;;33.45;29.98;;;15.70;99.90;;;;;;5055455;28;20199;-59
2023/06/23 04:32:55;;;;;;;31.73;28.42;;;15.70;99.90;;;;;;5055620;28;20587;-58
2023/06/23 04:35:21;;;;;;;33.85;30.35;;;15.70;99.90;;;;;;5055370;28;20246;-58
2023/06/23 04:37:51;;;;;;;35.10;31.23;;;15.80;99.90;;;;;;5055291;28;20175;-59
2023/06/23 04:40:30;;;;;;;36.33;32.42;;;15.90;99.90;;;;;;5055262;28;20460;-59
2023/06/23 04:43:13;;;;;;;35.40;31.52;;;15.90;99.90;;;;;;5055317;28;20203;-59
2023/06/23 04:45:48;;;;;;;34.72;31.02;;;15.90;99.90;;;;;;5055239;28;20222;-59
2023/06/23 04:48:16;;;;;;;35.75;31.88;;;16.00;99.90;;;;;;5055167;28;20176;-58
2023/06/23 04:50:43;;;;;;;35.03;31.23;;;16.00;99.90;;;;;;5055326;28;20232;-58
2023/06/23 04:53:16;;;;;;;36.08;32.17;;;16.10;99.90;;;;;;5055031;28;20221;-59
2023/06/23 04:55:43;;;;;;;38.03;33.33;;;16.10;99.90;;;;;;5055194;28;20616;-58
2023/06/23 04:58:12;;;;;;;35.97;32.15;;;16.10;99.90;;;;;;5054839;28;20168;-59
2023/06/23 05:00:39;;;;;;;37.00;33.30;;;16.20;99.90;;;;;;5054869;28;20191;-58
2023/06/23 05:03:05;;;;;;;36.65;32.75;;;16.20;99.90;;;;;;5054396;28;20210;-59
2023/06/23 05:05:32;;;;;;;39.88;33.72;;;16.30;99.90;;;;;;5055031;28;20203;-63
2023/06/23 05:08:01;;;;;;;38.05;34.10;;;16.30;99.90;;;;;;5054775;28;20636;-60
2023/06/23 05:10:28;;;;;;;36.90;32.97;;;16.40;99.90;;;;;;5054700;28;20171;-59
2023/06/23 05:12:55;;;;;;;35.25;31.52;;;16.50;99.90;;;;;;5054663;28;20179;-59
2023/06/23 05:15:22;;;;;;;37.53;33.47;;;16.50;99.90;;;;;;5054572;28;20698;-59
2023/06/23 05:17:50;;;;;;;35.60;31.73;;;16.60;99.90;;;;;;5051639;28;20661;-59
2023/06/23 05:20:20;;;;;;;37.78;33.65;;;16.70;99.90;;;;;;5045139;28;20231;-59
2023/06/23 05:22:48;;;;;;;34.67;31.08;;;16.80;99.90;;;;;;5037167;28;20168;-59
2023/06/23 05:25:16;;;;;;;34.78;31.30;;;16.90;99.90;;;;;;5034533;28;20203;-59
2023/06/23 05:27:45;;;;;;;36.75;32.25;;;16.90;99.90;;;;;;5034313;28;20200;-59
2023/06/23 05:30:16;;;;;;;36.88;33.10;;;17.00;99.90;;;;;;5034607;28;20533;-59
2023/06/23 05:32:43;;;;;;;35.70;31.55;;;17.10;99.90;;;;;;5032814;28;20580;-59
2023/06/23 05:35:10;;;;;;;35.13;31.48;;;17.10;99.90;;;;;;5033890;28;20199;-59
2023/06/23 05:37:39;;;;;;;33.35;29.92;;;17.20;99.90;;;;;;5034267;28;20625;-59
2023/06/23 05:40:08;;;;;;;36.38;31.45;;;17.30;99.90;;;;;;5034118;28;20199;-59
2023/06/23 05:42:34;;;;;;;35.83;32.00;;;17.40;99.90;;;;;;5034468;28;20168;-59
2023/06/23 05:45:00;;;;;;;36.28;32.53;;;17.40;99.90;;;;;;5034107;28;20168;-59
2023/06/23 05:47:34;;;;;;;37.33;32.45;;;17.50;99.90;;;;;;5034287;28;20179;-59
2023/06/23 05:50:05;;;;;;;36.22;32.47;;;17.60;99.90;;;;;;5034203;28;20172;-59
2023/06/23 05:52:33;;;;;;;38.05;33.95;;;17.70;99.90;;;;;;5034116;28;20588;-59
2023/06/23 05:55:02;;;;;;;37.70;33.72;;;17.80;99.90;;;;;;5033952;28;20520;-59
2023/06/23 05:57:33;;;;;;;39.00;33.60;;;17.80;99.90;;;;;;5034533;28;20271;-59
2023/06/23 06:00:13;;;;;;;37.13;33.08;;;17.90;99.90;;;;;;5034046;28;20596;-58
2023/06/23 06:02:43;;;;;;;36.53;32.83;;;18.00;99.90;;;;;;5033969;28;20267;-59
2023/06/23 06:05:12;;;;;;;37.95;32.78;;;18.00;99.90;;;;;;5033768;28;20253;-59
2023/06/23 06:07:39;;;;;;;35.80;31.98;;;18.10;99.90;;;;;;5033954;28;20172;-59
2023/06/23 06:10:08;;;;;;;34.70;31.08;;;18.30;99.90;;;;;;5033753;28;20184;-59
2023/06/23 06:12:35;;;;;;;33.28;29.88;;;18.40;99.90;;;;;;5033836;28;20572;-60
2023/06/23 06:15:02;;;;;;;32.92;29.38;;;18.40;99.90;;;;;;5032804;28;20184;-59
2023/06/23 06:17:31;;;;;;;32.97;29.48;;;18.50;99.90;;;;;;5033785;28;20261;-60
2023/06/23 06:20:00;;;;;;;32.72;29.10;;;18.50;99.90;;;;;;5033377;28;20179;-60
2023/06/23 06:22:27;;;;;;;32.22;29.13;;;18.60;99.90;;;;;;5033797;28;20272;-59
2023/06/23 06:24:53;;;;;;;31.88;28.58;;;18.60;99.90;;;;;;5033947;28;20226;-60
2023/06/23 06:27:21;;;;;;;30.17;27.08;;;18.70;99.90;;;;;;5033526;28;20275;-60
2023/06/23 06:29:49;;;;;;;30.95;27.60;;;18.70;99.90;;;;;;5033530;28;20229;-59
2023/06/23 06:32:17;;;;;;;30.33;27.15;;;18.90;99.90;;;;;;5033360;28;20184;-59
2023/06/23 06:34:45;;;;;;;30.20;26.98;;;18.90;99.90;;;;;;5033277;28;20263;-59
2023/06/23 06:37:11;;;;;;;27.52;24.77;;;19.00;99.90;;;;;;5033841;28;20202;-59
2023/06/23 06:39:38;;;;;;;28.70;25.92;;;19.20;99.90;;;;;;5033386;28;20183;-60
2023/06/23 06:42:05;;;;;;;27.80;25.00;;;19.20;99.90;;;;;;5033303;28;20212;-59
2023/06/23 06:44:30;;;;;;;25.83;23.23;;;19.30;99.90;;;;;;5033456;28;20171;-59
2023/06/23 06:46:57;;;;;;;24.02;21.48;;;19.30;99.90;;;;;;5033418;28;20503;-59
2023/06/23 06:49:25;;;;;;;24.27;21.85;;;19.50;99.90;;;;;;5033348;28;20687;-59
2023/06/23 06:51:52;;;;;;;23.35;21.02;;;19.50;99.90;;;;;;5033132;28;20184;-60
2023/06/23 06:54:17;;;;;;;22.48;20.10;;;19.60;99.90;;;;;;5033264;28;20702;-59
2023/06/23 06:56:44;;;;;;;22.30;19.35;;;19.50;99.90;;;;;;5033155;28;20179;-59
2023/06/23 06:59:09;;;;;;;21.02;18.90;;;19.60;99.90;;;;;;5033185;28;20171;-59
2023/06/23 07:01:39;;;;;;;20.70;18.70;;;19.70;99.90;;;;;;5033070;28;20199;-60
2023/06/23 07:04:06;;;;;;;18.98;17.08;;;19.90;99.90;;;;;;5033011;28;20168;-59
2023/06/23 07:06:34;;;;;;;18.65;16.58;;;19.80;99.90;;;;;;5033318;28;20172;-59
2023/06/23 07:08:59;;;;;;;18.40;16.42;;;19.90;99.90;;;;;;5033141;28;20195;-59
2023/06/23 07:11:25;;;;;;;17.77;15.98;;;19.90;99.90;;;;;;5033380;28;20175;-59
2023/06/23 07:13:50;;;;;;;16.98;15.38;;;20.00;99.90;;;;;;5032922;28;20191;-59
2023/06/23 07:16:16;;;;;;;18.52;16.40;;;20.00;99.90;;;;;;5033274;28;20172;-59
2023/06/23 07:18:42;;;;;;;17.98;16.08;;;20.10;99.90;;;;;;5032756;28;20236;-60
2023/06/23 07:21:10;;;;;;;17.55;15.80;;;20.10;99.90;;;;;;5033450;28;20212;-59
2023/06/23 07:23:37;;;;;;;17.20;15.40;;;20.30;99.90;;;;;;5032932;28;20642;-59
2023/06/23 07:26:03;;;;;;;15.48;13.95;;;20.40;99.90;;;;;;5035441;28;20183;-60
2023/06/23 07:28:28;;;;;;;16.48;14.80;;;20.50;99.90;;;;;;5036836;28;20180;-59
2023/06/23 07:30:54;;;;;;;15.02;13.43;;;20.50;99.90;;;;;;5036671;28;20564;-59
2023/06/23 07:33:20;;;;;;;14.00;12.70;;;20.50;99.90;;;;;;5036818;28;20194;-59
2023/06/23 07:35:46;;;;;;;13.45;12.13;;;20.80;99.90;;;;;;5019103;28;20180;-60
2023/06/23 07:38:11;;;;;;;13.30;11.90;;;20.80;99.90;;;;;;5036722;28;20637;-60
2023/06/23 07:40:37;;;;;;;13.25;11.95;;;20.90;99.90;;;;;;5036345;28;20664;-59
2023/06/23 07:43:03;;;;;;;14.05;12.65;;;21.00;99.90;;;;;;5036554;28;20191;-59
2023/06/23 07:45:28;;;;;;;13.27;11.90;;;21.10;99.90;;;;;;5036329;28;20192;-59
2023/06/23 07:47:54;;;;;;;13.65;11.57;;;21.20;99.90;;;;;;5036641;28;20179;-60
2023/06/23 07:50:20;;;;;;;13.13;11.82;;;21.20;99.90;;;;;;5036499;28;20259;-59
2023/06/23 07:52:53;;;;;;;12.68;11.38;;;21.00;99.90;;;;;;5036441;28;20176;-59
2023/06/23 07:55:19;;;;;;;13.70;12.27;;;21.10;99.90;;;;;;5036278;28;20180;-59
2023/06/23 07:57:45;;;;;;;13.82;12.52;;;21.10;99.90;;;;;;5036111;28;20652;-59
2023/06/23 08:00:11;;;;;;;15.75;13.35;;;21.10;99.90;;;;;;5035859;28;20203;-59
2023/06/23 08:02:37;;;;;;;14.32;12.93;;;21.20;99.90;;;;;;5036234;28;20176;-59
2023/06/23 08:05:03;;;;;;;16.60;14.25;;;21.40;99.90;;;;;;5036290;28;20176;-59
2023/06/23 08:07:29;;;;;;;15.38;13.80;;;21.50;99.90;;;;;;5036106;28;20188;-59
2023/06/23 08:09:54;;;;;;;14.65;13.23;;;21.60;99.90;;;;;;5036085;28;20175;-59
2023/06/23 08:12:20;;;;;;;15.20;13.50;;;21.80;99.90;;;;;;5036050;28;20187;-60
2023/06/23 08:14:45;;;;;;;14.77;13.20;;;21.80;99.90;;;;;;5035894;28;20203;-60
2023/06/23 08:17:11;;;;;;;15.90;13.50;;;21.80;99.90;;;;;;5035891;28;20277;-59
2023/06/23 08:19:37;;;;;;;15.48;13.88;;;22.00;99.90;;;;;;5036174;28;20223;-60
2023/06/23 08:22:03;;;;;;;15.65;14.02;;;21.90;99.90;;;;;;5035869;28;20204;-60
2023/06/23 08:24:29;;;;;;;15.90;13.85;;;22.00;99.90;;;;;;5035787;28;20522;-60
2023/06/23 08:26:54;;;;;;;14.82;12.90;;;22.20;99.90;;;;;;5035634;28;20256;-60
2023/06/23 08:29:20;;;;;;;14.57;12.88;;;22.20;99.90;;;;;;5035596;28;20638;-60
2023/06/23 08:31:46;;;;;;;12.70;11.43;;;21.90;99.90;;;;;;5036192;28;20203;-60
2023/06/23 08:34:11;;;;;;;14.13;12.38;;;22.00;99.90;;;;;;5035637;28;20172;-60
2023/06/23 08:36:37;;;;;;;14.63;12.65;;;22.30;99.90;;;;;;5034427;28;20184;-60
2023/06/23 08:39:03;;;;;;;12.95;11.65;;;22.50;99.90;;;;;;5035502;28;20198;-60
2023/06/23 08:41:30;;;;;;;14.82;13.32;;;22.70;99.90;;;;;;5035091;28;20298;-60
2023/06/23 08:44:01;;;;;;;14.70;12.77;;;22.60;99.90;;;;;;5035137;28;20561;-60
2023/06/23 08:46:31;;;;;;;14.68;12.68;;;22.80;99.90;;;;;;5035476;28;20229;-60
2023/06/23 08:49:01;;;;;;;12.55;11.35;;;22.90;99.90;;;;;;5035538;28;20183;-60
2023/06/23 08:51:27;;;;;;;13.80;12.43;;;23.10;99.90;;;;;;5035334;28;20685;-60
2023/06/23 08:53:53;;;;;;;14.10;11.95;;;23.30;99.90;;;;;;5035264;28;20210;-60
2023/06/23 08:56:19;;;;;;;15.38;11.98;;;23.40;99.90;;;;;;5035102;28;20533;-60
2023/06/23 08:58:45;;;;;;;13.63;12.10;;;23.30;99.90;;;;;;5035292;28;20230;-60
2023/06/23 09:01:10;;;;;;;14.38;12.13;;;23.50;99.90;;;;;;5035219;28;20207;-60
2023/06/23 09:03:36;;;;;;;12.15;10.48;;;23.70;99.90;;;;;;5035031;28;20180;-60
2023/06/23 09:06:03;;;;;;;13.80;12.18;;;23.70;99.90;;;;;;5035008;28;20176;-60
2023/06/23 09:08:28;;;;;;;14.48;11.98;;;23.70;99.90;;;;;;5034806;28;20175;-60
2023/06/23 09:10:54;;;;;;;12.50;11.20;;;23.90;99.90;;;;;;5034859;28;20172;-60
2023/06/23 09:13:24;;;;;;;11.90;10.70;;;24.10;99.90;;;;;;5034813;28;20174;-60
2023/06/23 09:15:51;;;;;;;12.65;11.35;;;23.90;99.90;;;;;;5034695;28;20533;-60
2023/06/23 09:18:18;;;;;;;12.07;10.27;;;24.10;99.90;;;;;;5034499;28;20224;-61
2023/06/23 09:20:46;;;;;;;12.80;10.68;;;24.10;99.90;;;;;;5034685;28;20231;-60
2023/06/23 09:23:16;;;;;;;10.40;9.40;;;24.10;99.90;;;;;;5034709;28;20537;-60
2023/06/23 09:25:49;;;;;;;10.95;9.80;;;24.20;99.90;;;;;;5034483;28;20634;-60
2023/06/23 09:28:30;;;;;;;10.82;9.73;;;24.10;99.90;;;;;;5034691;28;20175;-60
2023/06/23 09:30:58;;;;;;;12.05;10.60;;;24.20;99.90;;;;;;5034648;28;20266;-60
2023/06/23 09:33:24;;;;;;;14.85;10.52;;;24.40;99.90;;;;;;5034516;28;20637;-60
2023/06/23 09:35:52;;;;;;;11.07;9.98;;;24.40;99.90;;;;;;5034348;28;20167;-61
2023/06/23 09:38:23;;;;;;;10.13;9.10;;;24.60;99.90;;;;;;5034587;28;20175;-60
2023/06/23 09:41:10;;;;;;;9.52;8.63;;;24.70;99.90;;;;;;5034379;28;20684;-61
2023/06/23 09:43:39;;;;;;;11.00;8.88;;;24.90;99.90;;;;;;5034265;28;20192;-60
2023/06/23 09:46:06;;;;;;;9.25;8.07;;;24.90;99.90;;;;;;5034199;28;20234;-60
2023/06/23 09:48:32;;;;;;;9.15;7.68;;;24.90;99.90;;;;;;5033791;28;20191;-60
2023/06/23 09:51:05;;;;;;;9.70;8.45;;;25.00;99.90;;;;;;5034208;28;20191;-61
2023/06/23 09:53:35;;;;;;;9.73;8.13;;;25.10;99.90;;;;;;5034200;28;20699;-61
2023/06/23 09:56:03;;;;;;;8.23;7.43;;;25.30;99.90;;;;;;5034117;28;20199;-61
2023/06/23 09:58:41;;;;;;;8.30;7.50;;;25.30;99.90;;;;;;5033948;28;20172;-61
2023/06/23 10:01:13;;;;;;;9.73;7.72;;;25.40;99.90;;;;;;5033815;28;20282;-61
2023/06/23 10:03:45;;;;;;;10.32;7.70;;;25.40;99.90;;;;;;5033917;28;20178;-61
2023/06/23 10:06:25;;;;;;;7.88;7.07;;;25.30;99.90;;;;;;5033910;28;20172;-61
2023/06/23 10:08:53;;;;;;;7.88;7.05;;;25.50;99.90;;;;;;5033729;28;20175;-61
2023/06/23 10:11:20;;;;;;;9.57;7.55;;;25.30;99.90;;;;;;5033683;28;20250;-61
2023/06/23 10:13:46;;;;;;;8.27;7.38;;;25.40;99.90;;;;;;5033615;28;20291;-61
2023/06/23 10:16:13;;;;;;;8.27;7.35;;;25.60;99.90;;;;;;5033844;28;20172;-61
2023/06/23 10:18:39;;;;;;;8.63;7.80;;;25.80;99.90;;;;;;5033251;28;20231;-61
2023/06/23 10:21:06;;;;;;;9.93;7.43;;;25.70;99.90;;;;;;5033564;28;20253;-61
2023/06/23 10:23:33;;;;;;;10.55;7.85;;;25.60;99.90;;;;;;5033491;28;20183;-61
2023/06/23 10:26:00;;;;;;;8.73;7.82;;;25.60;99.90;;;;;;5033449;28;20194;-61
2023/06/23 10:28:28;;;;;;;8.00;7.15;;;25.50;99.90;;;;;;5033641;28;20633;-61
2023/06/23 10:30:54;;;;;;;10.63;6.50;;;25.40;99.90;;;;;;5033408;28;20187;-61
2023/06/23 10:33:22;;;;;;;6.78;6.07;;;25.40;99.90;;;;;;5033487;28;20182;-61
2023/06/23 10:35:52;;;;;;;7.22;6.13;;;25.60;99.90;;;;;;5033425;28;20180;-61
2023/06/23 10:38:25;;;;;;;8.13;6.22;;;25.80;99.90;;;;;;5033353;28;20172;-61
2023/06/23 10:40:53;;;;;;;7.60;6.75;;;25.60;99.90;;;;;;5033245;28;20199;-61
2023/06/23 10:43:20;;;;;;;7.53;6.45;;;25.30;99.90;;;;;;5033475;28;20176;-61
2023/06/23 10:45:46;;;;;;;7.40;6.60;;;24.90;99.90;;;;;;5033230;28;20180;-62
2023/06/23 10:48:13;;;;;;;6.55;5.85;;;24.50;99.90;;;;;;5033336;28;20172;-61
2023/06/23 10:50:40;;;;;;;6.90;5.25;;;24.50;99.90;;;;;;5033066;28;20188;-61
2023/06/23 10:53:16;;;;;;;7.07;5.47;;;24.50;99.90;;;;;;5032931;28;20233;-61
2023/06/23 10:55:43;;;;;;;5.45;4.88;;;24.50;99.90;;;;;;5033167;28;20188;-61
2023/06/23 10:58:14;;;;;;;7.32;5.18;;;24.80;99.90;;;;;;5033301;28;20176;-61
2023/06/23 11:01:03;;;;;;;9.40;5.93;;;25.30;99.90;;;;;;5035099;28;20202;-61
2023/06/23 11:03:36;;;;;;;12.90;6.90;;;25.60;99.90;;;;;;5036359;28;20192;-61
2023/06/23 11:06:07;;;;;;;8.60;5.35;;;25.50;99.90;;;;;;5037369;28;20175;-61
2023/06/23 11:08:40;;;;;;;7.25;5.88;;;25.70;99.90;;;;;;5037106;28;20164;-61
2023/06/23 11:11:08;;;;;;;10.25;6.65;;;25.90;99.90;;;;;;5037068;28;20172;-61
2023/06/23 11:13:47;;;;;;;8.23;7.43;;;25.70;99.90;;;;;;5037051;28;20502;-62
2023/06/23 11:16:18;;;;;;;12.75;7.25;;;25.50;99.90;;;;;;5036970;28;20179;-61
2023/06/23 11:18:48;;;;;;;12.02;6.50;;;25.60;99.90;;;;;;5036826;28;20227;-61
2023/06/23 11:21:27;;;;;;;7.95;6.68;;;25.60;99.90;;;;;;5036942;28;20211;-62
2023/06/23 11:24:19;;;;;;;10.43;6.72;;;25.60;99.90;;;;;;5036826;28;20184;-62
2023/06/23 11:26:49;;;;;;;7.75;5.60;;;25.60;99.90;;;;;;5036754;28;20198;-61
2023/06/23 11:29:21;;;;;;;7.93;5.43;;;25.80;99.90;;;;;;5036918;28;20168;-61
2023/06/23 11:32:07;;;;;;;7.82;6.40;;;26.10;99.90;;;;;;5036911;28;20190;-61
2023/06/23 11:34:53;;;;;;;6.85;5.38;;;26.10;99.90;;;;;;5036648;28;20191;-62
2023/06/23 11:37:20;;;;;;;7.10;6.45;;;26.10;99.90;;;;;;5036763;28;20180;-61
2023/06/23 11:39:47;;;;;;;7.32;6.30;;;26.20;99.90;;;;;;5036724;28;20183;-61
2023/06/23 11:42:13;;;;;;;6.63;5.68;;;25.90;99.90;;;;;;5036519;28;20250;-61
2023/06/23 11:44:39;;;;;;;7.45;5.60;;;26.00;99.90;;;;;;5036405;28;20188;-61
2023/06/23 11:47:05;;;;;;;6.88;5.13;;;26.00;99.90;;;;;;5036521;28;20174;-62
2023/06/23 11:49:31;;;;;;;5.65;4.45;;;25.60;99.90;;;;;;5036289;28;20172;-61
2023/06/23 11:52:04;;;;;;;4.90;4.40;;;25.30;99.90;;;;;;5036551;28;20180;-62
2023/06/23 11:54:35;;;;;;;4.97;3.92;;;25.10;99.90;;;;;;5036571;28;20230;-62
2023/06/23 11:57:06;;;;;;;4.43;3.63;;;25.10;99.90;;;;;;5036355;28;20176;-60
2023/06/23 11:59:36;;;;;;;4.13;3.58;;;25.30;99.90;;;;;;5036261;28;20172;-60
2023/06/23 12:02:02;;;;;;;5.20;4.70;;;25.50;99.90;;;;;;5036050;28;20673;-60
2023/06/23 12:04:29;;;;;;;7.00;5.70;;;25.70;99.90;;;;;;5035945;28;20537;-60
2023/06/23 12:06:56;;;;;;;8.57;6.13;;;25.90;99.90;;;;;;5036215;28;20183;-60
2023/06/23 12:09:22;;;;;;;7.47;6.65;;;26.20;99.90;;;;;;5036057;28;20183;-60
2023/06/23 12:11:48;;;;;;;7.50;6.00;;;26.10;99.90;;;;;;5035949;28;20541;-60
2023/06/23 12:14:14;;;;;;;9.13;6.78;;;26.20;99.90;;;;;;5035892;28;20175;-60
2023/06/23 12:16:39;;;;;;;6.68;5.85;;;26.30;99.90;;;;;;5035560;28;20172;-59
2023/06/23 12:19:05;;;;;;;8.73;7.03;;;26.60;99.90;;;;;;5035950;28;20179;-60
2023/06/23 12:21:32;;;;;;;7.60;6.75;;;26.60;99.90;;;;;;5035771;28;20294;-60
2023/06/23 12:23:58;;;;;;;7.95;7.00;;;26.70;99.90;;;;;;5035728;28;20196;-60
2023/06/23 12:26:24;;;;;;;9.35;6.70;;;26.70;99.90;;;;;;5035651;28;20561;-60
2023/06/23 12:28:50;;;;;;;8.27;7.10;;;26.90;99.90;;;;;;5035616;28;20208;-59
2023/06/23 12:31:33;;;;;;;7.90;6.50;;;27.10;99.90;;;;;;5035573;28;20176;-60
2023/06/23 12:34:01;;;;;;;8.10;7.10;;;27.10;99.90;;;;;;5035538;28;20673;-60
2023/06/23 12:36:27;;;;;;;7.88;7.05;;;27.00;99.90;;;;;;5035611;28;20188;-60
2023/06/23 12:38:54;;;;;;;6.95;6.13;;;27.10;99.90;;;;;;5035464;28;20176;-60